createdAt,value
2018-08-29T00:00:14.033Z,89.51
2018-08-29T00:01:14.030Z,89.51
2018-08-29T00:02:14.026Z,89.61
2018-08-29T00:03:14.023Z,89.61
2018-08-29T00:04:14.016Z,89.42
2018-08-29T00:05:14.011Z,90.19
2018-08-29T00:06:14.008Z,90.09
2018-08-29T00:07:14.005Z,89.80
2018-08-29T00:08:14.007Z,90.19
2018-08-29T00:09:14.001Z,89.80
2018-08-29T00:10:13.994Z,90.00
2018-08-29T00:11:13.991Z,90.43
2018-08-29T00:12:13.993Z,90.72
2018-08-29T00:13:13.988Z,90.43
2018-08-29T00:14:13.986Z,90.38
2018-08-29T00:15:13.982Z,90.14
2018-08-29T00:16:13.974Z,89.51
2018-08-29T00:17:13.973Z,89.42
2018-08-29T00:18:13.967Z,89.23
2018-08-29T00:19:13.965Z,89.32
2018-08-29T00:20:13.966Z,89.32
2018-08-29T00:21:13.963Z,89.61
2018-08-29T00:22:13.959Z,89.61
2018-08-29T00:23:13.955Z,88.65
2018-08-29T00:24:13.948Z,87.98
2018-08-29T00:25:13.943Z,88.17
2018-08-29T00:26:13.943Z,87.70
2018-08-29T00:27:13.945Z,88.08
2018-08-29T00:28:13.943Z,88.08
2018-08-29T00:29:13.933Z,88.17
2018-08-29T00:30:13.927Z,87.88
2018-08-29T00:31:13.923Z,86.45
2018-08-29T00:32:13.925Z,87.50
2018-08-29T00:33:13.929Z,87.98
2018-08-29T00:34:13.918Z,87.70
2018-08-29T00:35:13.915Z,88.65
2018-08-29T00:36:13.907Z,89.23
2018-08-29T00:37:13.903Z,88.84
2018-08-29T00:38:13.900Z,89.04
2018-08-29T00:39:13.896Z,89.51
2018-08-29T00:40:13.897Z,89.42
2018-08-29T00:41:13.895Z,89.23
2018-08-29T00:42:13.887Z,89.51
2018-08-29T00:43:13.882Z,89.28
2018-08-29T00:44:13.884Z,89.76
2018-08-29T00:45:13.879Z,89.28
2018-08-29T00:46:13.877Z,89.18
2018-08-29T00:47:13.875Z,89.37
2018-08-29T00:48:13.864Z,89.37
2018-08-29T00:49:13.861Z,88.70
2018-08-29T00:50:13.858Z,89.47
2018-08-29T00:51:13.854Z,89.37
2018-08-29T00:52:13.854Z,88.90
2018-08-29T00:53:13.851Z,89.37
2018-08-29T00:54:13.849Z,89.18
2018-08-29T00:55:13.848Z,88.99
2018-08-29T00:56:13.836Z,89.37
2018-08-29T00:57:13.833Z,89.57
2018-08-29T00:58:13.835Z,89.37
2018-08-29T00:59:13.830Z,89.66
2018-08-29T01:00:13.828Z,89.57
2018-08-29T01:01:13.819Z,89.76
2018-08-29T01:02:13.816Z,90.05
2018-08-29T01:03:13.812Z,89.95
2018-08-29T01:04:13.813Z,89.76
2018-08-29T01:05:13.809Z,90.62
2018-08-29T01:06:13.804Z,89.76
2018-08-29T01:07:13.801Z,90.62
2018-08-29T01:08:13.794Z,90.33
2018-08-29T01:09:13.789Z,90.14
2018-08-29T01:10:13.786Z,90.53
2018-08-29T01:11:13.783Z,89.76
2018-08-29T01:12:13.784Z,91.00
2018-08-29T01:13:13.779Z,91.05
2018-08-29T01:14:13.771Z,91.05
2018-08-29T01:15:13.768Z,90.91
2018-08-29T01:16:13.771Z,91.10
2018-08-29T01:17:13.765Z,90.81
2018-08-29T01:18:13.762Z,90.77
2018-08-29T01:19:13.757Z,90.58
2018-08-29T01:20:13.749Z,90.48
2018-08-29T01:21:13.746Z,90.48
2018-08-29T01:22:13.741Z,90.48
2018-08-29T01:23:13.738Z,90.09
2018-08-29T01:24:13.739Z,90.39
2018-08-29T01:25:13.734Z,90.58
2018-08-29T01:26:13.732Z,90.86
2018-08-29T01:27:13.729Z,90.67
2018-08-29T01:28:13.721Z,90.19
2018-08-29T01:29:13.715Z,90.48
2018-08-29T01:30:13.719Z,90.19
2018-08-29T01:31:13.714Z,89.72
2018-08-29T01:32:13.705Z,89.52
2018-08-29T01:33:13.701Z,89.18
2018-08-29T01:34:13.716Z,89.09
2018-08-29T01:35:13.693Z,88.23
2018-08-29T01:36:13.694Z,87.94
2018-08-29T01:37:13.689Z,87.94
2018-08-29T01:38:13.686Z,87.08
2018-08-29T01:39:13.682Z,86.16
2018-08-29T01:40:13.674Z,86.25
2018-08-29T01:41:13.671Z,86.16
2018-08-29T01:42:13.666Z,86.16
2018-08-29T01:43:13.663Z,85.30
2018-08-29T01:44:13.666Z,85.39
2018-08-29T01:45:13.660Z,85.58
2018-08-29T01:46:13.651Z,86.25
2018-08-29T01:47:13.647Z,86.64
2018-08-29T01:48:13.650Z,87.31
2018-08-29T01:49:13.645Z,87.50
2018-08-29T01:50:13.642Z,88.37
2018-08-29T01:51:13.642Z,87.98
2018-08-29T01:52:13.630Z,88.08
2018-08-29T01:53:13.625Z,87.98
2018-08-29T01:54:13.621Z,88.51
2018-08-29T01:55:13.618Z,88.51
2018-08-29T01:56:13.621Z,89.09
2018-08-29T01:57:13.616Z,88.99
2018-08-29T01:58:13.611Z,89.47
2018-08-29T01:59:13.607Z,89.47
2018-08-29T02:00:13.600Z,89.18
2018-08-29T02:01:13.596Z,89.37
2018-08-29T02:02:13.595Z,89.66
2018-08-29T02:03:13.595Z,90.14
2018-08-29T02:04:13.584Z,90.09
2018-08-29T02:05:13.581Z,89.72
2018-08-29T02:06:13.577Z,90.39
2018-08-29T02:07:13.573Z,90.29
2018-08-29T02:08:13.576Z,90.67
2018-08-29T02:09:13.569Z,90.48
2018-08-29T02:10:13.566Z,90.58
2018-08-29T02:11:13.563Z,90.48
2018-08-29T02:12:13.554Z,91.15
2018-08-29T02:13:13.550Z,90.67
2018-08-29T02:14:13.548Z,90.96
2018-08-29T02:15:13.543Z,91.82
2018-08-29T02:16:13.543Z,91.44
2018-08-29T02:17:13.537Z,91.63
2018-08-29T02:18:13.530Z,91.39
2018-08-29T02:19:13.526Z,91.39
2018-08-29T02:20:13.527Z,91.77
2018-08-29T02:21:13.522Z,91.97
2018-08-29T02:22:13.518Z,92.06
2018-08-29T02:23:13.517Z,92.25
2018-08-29T02:24:13.508Z,92.16
2018-08-29T02:25:13.506Z,92.25
2018-08-29T02:26:13.499Z,91.87
2018-08-29T02:27:13.495Z,91.01
2018-08-29T02:28:13.495Z,91.11
2018-08-29T02:29:13.494Z,91.82
2018-08-29T02:30:13.486Z,89.72
2018-08-29T02:31:13.483Z,90.00
2018-08-29T02:32:13.474Z,90.67
2018-08-29T02:33:13.471Z,89.33
2018-08-29T02:34:13.471Z,89.43
2018-08-29T02:35:13.467Z,90.09
2018-08-29T02:36:13.458Z,89.90
2018-08-29T02:37:13.453Z,89.14
2018-08-29T02:38:13.450Z,89.14
2018-08-29T02:39:13.445Z,88.47
2018-08-29T02:40:13.450Z,89.52
2018-08-29T02:41:13.443Z,88.85
2018-08-29T02:42:13.438Z,88.85
2018-08-29T02:43:13.435Z,89.04
2018-08-29T02:44:13.427Z,89.43
2018-08-29T02:45:13.425Z,88.95
2018-08-29T02:46:13.417Z,89.23
2018-08-29T02:47:13.413Z,88.66
2018-08-29T02:48:13.417Z,88.85
2018-08-29T02:49:13.459Z,89.43
2018-08-29T02:50:13.402Z,89.33
2018-08-29T02:51:13.398Z,89.23
2018-08-29T02:52:13.398Z,90.09
2018-08-29T02:53:13.393Z,90.19
2018-08-29T02:54:13.391Z,90.29
2018-08-29T02:55:13.387Z,89.90
2018-08-29T02:56:13.377Z,90.29
2018-08-29T02:57:13.373Z,90.00
2018-08-29T02:58:13.371Z,90.09
2018-08-29T02:59:13.365Z,90.67
2018-08-29T03:00:13.366Z,89.90
2018-08-29T03:01:13.362Z,89.90
2018-08-29T03:02:13.362Z,90.48
2018-08-29T03:03:13.354Z,90.29
2018-08-29T03:04:13.347Z,90.77
2018-08-29T03:05:13.342Z,90.67
2018-08-29T03:06:13.341Z,90.72
2018-08-29T03:07:13.339Z,91.20
2018-08-29T03:08:13.329Z,90.91
2018-08-29T03:09:13.326Z,90.91
2018-08-29T03:10:13.321Z,91.68
2018-08-29T03:11:13.317Z,91.58
2018-08-29T03:12:13.318Z,91.20
2018-08-29T03:13:13.319Z,91.77
2018-08-29T03:14:13.313Z,92.25
2018-08-29T03:15:13.305Z,91.68
2018-08-29T03:16:13.296Z,91.49
2018-08-29T03:17:13.293Z,92.35
2018-08-29T03:18:13.289Z,92.11
2018-08-29T03:19:13.283Z,92.30
2018-08-29T03:20:13.285Z,92.21
2018-08-29T03:21:13.280Z,92.21
2018-08-29T03:22:13.272Z,92.97
2018-08-29T03:23:13.266Z,92.11
2018-08-29T03:24:13.268Z,92.59
2018-08-29T03:25:13.263Z,92.49
2018-08-29T03:26:13.313Z,92.40
2018-08-29T03:27:13.254Z,92.69
2018-08-29T03:28:13.246Z,92.21
2018-08-29T03:29:13.240Z,92.78
2018-08-29T03:30:13.237Z,92.69
2018-08-29T03:31:13.235Z,92.49
2018-08-29T03:32:13.232Z,92.78
2018-08-29T03:33:13.228Z,92.74
2018-08-29T03:34:13.223Z,92.49
2018-08-29T03:35:13.223Z,92.88
2018-08-29T03:36:13.211Z,92.78
2018-08-29T03:37:13.206Z,93.02
2018-08-29T03:38:13.273Z,93.84
2018-08-29T03:39:13.207Z,92.88
2018-08-29T03:40:13.193Z,92.83
2018-08-29T03:41:13.189Z,93.79
2018-08-29T03:42:13.187Z,93.07
2018-08-29T03:43:13.183Z,93.55
2018-08-29T03:44:13.184Z,93.21
2018-08-29T03:45:13.175Z,93.40
2018-08-29T03:46:13.172Z,93.12
2018-08-29T03:47:13.165Z,93.88
2018-08-29T03:48:13.158Z,93.98
2018-08-29T03:49:13.152Z,94.17
2018-08-29T03:50:13.148Z,93.88
2018-08-29T03:51:13.143Z,93.69
2018-08-29T03:52:13.143Z,94.07
2018-08-29T03:53:13.140Z,94.07
2018-08-29T03:54:13.199Z,94.07
2018-08-29T03:55:13.125Z,93.88
2018-08-29T03:56:13.127Z,93.88
2018-08-29T03:57:13.121Z,93.60
2018-08-29T03:58:13.115Z,93.69
2018-08-29T03:59:13.114Z,93.40
2018-08-29T04:00:13.103Z,93.40
2018-08-29T04:01:13.098Z,93.79
2018-08-29T04:02:13.094Z,93.98
2018-08-29T04:03:13.089Z,93.60
2018-08-29T04:04:13.090Z,94.17
2018-08-29T04:05:13.083Z,94.17
2018-08-29T04:06:13.079Z,93.50
2018-08-29T04:07:13.076Z,93.60
2018-08-29T04:08:13.068Z,93.79
2018-08-29T04:09:13.193Z,94.17
2018-08-29T04:10:13.062Z,94.74
2018-08-29T04:11:13.057Z,94.26
2018-08-29T04:12:13.048Z,94.17
2018-08-29T04:13:13.041Z,94.65
2018-08-29T04:14:13.037Z,93.88
2018-08-29T04:15:13.033Z,94.17
2018-08-29T04:16:13.033Z,94.26
2018-08-29T04:17:13.028Z,93.88
2018-08-29T04:18:13.023Z,94.17
2018-08-29T04:19:13.018Z,94.07
2018-08-29T04:20:13.019Z,93.31
2018-08-29T04:21:13.004Z,93.69
2018-08-29T04:22:13.000Z,93.69
2018-08-29T04:23:12.995Z,93.60
2018-08-29T04:24:12.998Z,93.69
2018-08-29T04:25:12.991Z,93.79
2018-08-29T04:26:12.982Z,93.50
2018-08-29T04:27:12.977Z,93.69
2018-08-29T04:28:12.978Z,93.31
2018-08-29T04:29:12.972Z,93.60
2018-08-29T04:30:12.966Z,93.69
2018-08-29T04:31:12.961Z,93.88
2018-08-29T04:32:12.958Z,93.60
2018-08-29T04:33:12.948Z,93.79
2018-08-29T04:34:12.943Z,93.79
2018-08-29T04:35:12.940Z,93.69
2018-08-29T04:36:13.052Z,93.69
2018-08-29T04:37:12.935Z,93.50
2018-08-29T04:38:12.930Z,93.31
2018-08-29T04:39:12.923Z,93.50
2018-08-29T04:40:12.919Z,93.31
2018-08-29T04:41:12.909Z,93.36
2018-08-29T04:42:12.910Z,93.65
2018-08-29T04:43:12.906Z,93.45
2018-08-29T04:44:12.897Z,93.50
2018-08-29T04:45:12.891Z,93.50
2018-08-29T04:46:12.892Z,93.74
2018-08-29T04:47:12.882Z,93.50
2018-08-29T04:48:12.880Z,94.26
2018-08-29T04:49:12.881Z,94.22
2018-08-29T04:50:12.870Z,94.02
2018-08-29T04:51:12.866Z,93.79
2018-08-29T04:52:12.858Z,94.26
2018-08-29T04:53:12.856Z,94.26
2018-08-29T04:54:12.849Z,94.26
2018-08-29T04:55:12.845Z,94.65
2018-08-29T04:56:12.842Z,94.36
2018-08-29T04:57:12.838Z,94.55
2018-08-29T04:58:12.829Z,93.98
2018-08-29T04:59:12.823Z,94.26
2018-08-29T05:00:12.825Z,94.36
2018-08-29T05:01:12.819Z,94.65
2018-08-29T05:02:12.813Z,94.46
2018-08-29T05:03:12.811Z,94.26
2018-08-29T05:04:12.865Z,94.26
2018-08-29T05:05:12.794Z,94.46
2018-08-29T05:06:12.789Z,94.36
2018-08-29T05:07:12.787Z,94.46
2018-08-29T05:08:12.786Z,94.65
2018-08-29T05:09:12.780Z,94.55
2018-08-29T05:10:12.775Z,94.74
2018-08-29T05:11:12.770Z,94.17
2018-08-29T05:12:12.762Z,93.79
2018-08-29T05:13:12.756Z,94.17
2018-08-29T05:14:12.757Z,93.93
2018-08-29T05:15:12.751Z,93.84
2018-08-29T05:16:12.743Z,93.88
2018-08-29T05:17:12.737Z,93.40
2018-08-29T05:18:12.733Z,93.07
2018-08-29T05:19:12.730Z,92.21
2018-08-29T05:20:12.730Z,92.35
2018-08-29T05:21:12.727Z,91.96
2018-08-29T05:22:12.720Z,91.05
2018-08-29T05:23:12.718Z,90.42
2018-08-29T05:24:12.708Z,88.70
2018-08-29T05:25:12.704Z,87.88
2018-08-29T05:26:12.700Z,87.05
2018-08-29T05:27:12.711Z,86.43
2018-08-29T05:28:12.698Z,84.17
2018-08-29T05:29:12.693Z,83.78
2018-08-29T05:30:12.686Z,82.67
2018-08-29T05:31:12.689Z,82.14
2018-08-29T05:32:12.685Z,80.40
2018-08-29T05:33:12.681Z,79.58
2018-08-29T05:34:12.680Z,79.19
2018-08-29T05:35:12.684Z,77.88
2018-08-29T05:36:12.670Z,76.18
2018-08-29T05:37:12.667Z,74.78
2018-08-29T05:38:12.666Z,74.20
2018-08-29T05:39:12.664Z,73.66
2018-08-29T05:40:12.669Z,72.44
2018-08-29T05:41:12.665Z,71.51
2018-08-29T05:42:12.663Z,70.36
2018-08-29T05:43:12.663Z,69.71
2018-08-29T05:44:12.657Z,68.78
2018-08-29T05:45:12.654Z,68.10
2018-08-29T05:46:12.659Z,67.43
2018-08-29T05:47:12.672Z,66.98
2018-08-29T05:48:12.779Z,67.21
2018-08-29T05:49:12.653Z,66.24
2018-08-29T05:50:12.654Z,65.50
2018-08-29T05:51:12.654Z,65.69
2018-08-29T05:52:12.666Z,64.66
2018-08-29T05:53:12.658Z,63.98
2018-08-29T05:54:12.659Z,64.07
2018-08-29T05:55:12.666Z,63.59
2018-08-29T05:56:12.657Z,63.21
2018-08-29T05:57:12.657Z,63.40
2018-08-29T05:58:12.658Z,63.01
2018-08-29T05:59:12.659Z,63.01
2018-08-29T06:00:12.666Z,63.59
2018-08-29T06:01:12.666Z,62.63
2018-08-29T06:02:12.662Z,62.85
2018-08-29T06:03:12.666Z,62.56
2018-08-29T06:04:12.669Z,62.66
2018-08-29T06:05:12.671Z,62.75
2018-08-29T06:06:12.674Z,63.21
2018-08-29T06:07:12.676Z,63.53
2018-08-29T06:08:12.672Z,62.37
2018-08-29T06:09:12.673Z,62.30
2018-08-29T06:10:12.794Z,62.10
2018-08-29T06:11:12.678Z,61.36
2018-08-29T06:12:12.683Z,61.10
2018-08-29T06:13:12.685Z,60.42
2018-08-29T06:14:12.689Z,59.87
2018-08-29T06:15:12.691Z,60.00
2018-08-29T06:16:12.688Z,58.44
2018-08-29T06:17:12.692Z,57.31
2018-08-29T06:18:12.697Z,56.85
2018-08-29T06:19:12.701Z,54.75
2018-08-29T06:20:12.699Z,53.39
2018-08-29T06:21:12.700Z,53.34
2018-08-29T06:22:12.704Z,53.22
2018-08-29T06:23:12.708Z,54.24
2018-08-29T06:24:12.715Z,53.95
2018-08-29T06:25:12.718Z,53.80
2018-08-29T06:26:12.721Z,53.73
2018-08-29T06:27:12.726Z,54.19
2018-08-29T06:28:12.725Z,54.28
2018-08-29T06:29:12.728Z,54.70
2018-08-29T06:30:12.733Z,54.11
2018-08-29T06:31:12.738Z,53.95
2018-08-29T06:32:12.747Z,53.52
2018-08-29T06:33:12.750Z,52.55
2018-08-29T06:34:12.750Z,51.84
2018-08-29T06:35:12.759Z,52.40
2018-08-29T06:36:12.765Z,52.42
2018-08-29T06:37:12.767Z,52.35
2018-08-29T06:38:12.784Z,51.23
2018-08-29T06:39:12.777Z,50.80
2018-08-29T06:40:12.778Z,50.53
2018-08-29T06:41:12.783Z,50.65
2018-08-29T06:42:12.788Z,50.48
2018-08-29T06:43:12.795Z,49.44
2018-08-29T06:44:12.805Z,49.58
2018-08-29T06:45:12.809Z,49.39
2018-08-29T06:46:12.819Z,49.76
2018-08-29T06:47:12.822Z,50.26
2018-08-29T06:48:12.822Z,50.99
2018-08-29T06:49:12.828Z,52.51
2018-08-29T06:50:12.847Z,53.36
2018-08-29T06:51:12.845Z,54.15
2018-08-29T06:52:12.847Z,55.93
2018-08-29T06:53:12.851Z,57.81
2018-08-29T06:54:12.855Z,59.83
2018-08-29T06:55:12.861Z,60.61
2018-08-29T06:56:12.876Z,60.64
2018-08-29T06:57:12.876Z,60.51
2018-08-29T06:58:12.879Z,60.93
2018-08-29T06:59:12.892Z,60.57
2018-08-29T07:00:12.886Z,59.92
2018-08-29T07:01:12.889Z,58.85
2018-08-29T07:02:12.893Z,57.36
2018-08-29T07:03:12.899Z,55.89
2018-08-29T07:04:12.907Z,53.03
2018-08-29T07:05:12.910Z,51.75
2018-08-29T07:06:12.910Z,50.51
2018-08-29T07:07:12.917Z,48.61
2018-08-29T07:08:12.926Z,47.09
2018-08-29T07:09:12.994Z,45.26
2018-08-29T07:10:12.938Z,44.43
2018-08-29T07:11:12.940Z,43.67
2018-08-29T07:12:12.942Z,42.25
2018-08-29T07:13:12.947Z,41.00
2018-08-29T07:14:12.954Z,39.94
2018-08-29T07:15:12.963Z,38.96
2018-08-29T07:16:13.031Z,38.68
2018-08-29T07:17:12.977Z,38.53
2018-08-29T07:18:12.983Z,37.43
2018-08-29T07:19:12.990Z,36.86
2018-08-29T07:20:12.993Z,36.40
2018-08-29T07:21:13.000Z,36.22
2018-08-29T07:22:13.013Z,36.34
2018-08-29T07:23:13.253Z,36.54
2018-08-29T07:24:13.028Z,35.83
2018-08-29T07:25:13.032Z,35.23
2018-08-29T07:26:13.041Z,35.82
2018-08-29T07:27:13.050Z,36.08
2018-08-29T07:28:13.063Z,36.33
2018-08-29T07:29:13.123Z,37.33
2018-08-29T07:30:13.080Z,37.54
2018-08-29T07:31:13.090Z,37.05
2018-08-29T07:32:13.094Z,37.37
2018-08-29T07:33:13.103Z,37.35
2018-08-29T07:34:13.112Z,37.41
2018-08-29T07:35:13.122Z,37.61
2018-08-29T07:36:13.269Z,38.45
2018-08-29T07:37:13.145Z,40.00
2018-08-29T07:38:13.150Z,41.68
2018-08-29T07:39:13.161Z,40.31
2018-08-29T07:40:13.173Z,39.94
2018-08-29T07:41:13.183Z,40.37
2018-08-29T07:42:13.218Z,38.80
2018-08-29T07:43:13.204Z,38.72
2018-08-29T07:44:13.210Z,38.53
2018-08-29T07:45:13.220Z,38.39
2018-08-29T07:46:13.229Z,37.84
2018-08-29T07:47:13.239Z,37.35
2018-08-29T07:48:13.279Z,38.39
2018-08-29T07:49:13.265Z,37.51
2018-08-29T07:50:13.285Z,37.71
2018-08-29T07:51:13.285Z,38.35
2018-08-29T07:52:13.291Z,39.27
2018-08-29T07:53:13.302Z,39.33
2018-08-29T07:54:13.316Z,39.61
2018-08-29T07:55:13.331Z,39.98
2018-08-29T07:56:13.337Z,40.78
2018-08-29T07:57:13.344Z,41.76
2018-08-29T07:58:13.355Z,40.31
2018-08-29T07:59:13.366Z,40.01
2018-08-29T08:00:13.382Z,39.33
2018-08-29T08:01:13.423Z,40.14
2018-08-29T08:02:13.403Z,40.27
2018-08-29T08:03:13.524Z,40.76
2018-08-29T08:04:13.420Z,40.48
2018-08-29T08:05:13.432Z,40.14
2018-08-29T08:06:13.442Z,39.27
2018-08-29T08:07:13.457Z,39.07
2018-08-29T08:08:13.679Z,38.70
2018-08-29T08:09:13.496Z,38.93
2018-08-29T08:10:13.489Z,37.37
2018-08-29T08:11:13.496Z,37.38
2018-08-29T08:12:13.514Z,37.48
2018-08-29T08:13:13.522Z,37.40
2018-08-29T08:14:13.534Z,37.05
2018-08-29T08:15:13.547Z,37.35
2018-08-29T08:16:13.552Z,37.23
2018-08-29T08:17:13.567Z,38.00
2018-08-29T08:18:13.573Z,37.54
2018-08-29T08:19:13.586Z,37.27
2018-08-29T08:20:13.601Z,39.03
2018-08-29T08:21:13.713Z,38.27
2018-08-29T08:22:13.624Z,38.39
2018-08-29T08:23:13.634Z,37.13
2018-08-29T08:24:13.642Z,35.99
2018-08-29T08:25:13.652Z,36.88
2018-08-29T08:26:13.670Z,35.84
2018-08-29T08:27:13.682Z,34.36
2018-08-29T08:28:13.690Z,34.28
2018-08-29T08:29:13.803Z,33.41
2018-08-29T08:30:13.711Z,33.98
2018-08-29T08:31:13.724Z,33.31
2018-08-29T08:32:13.739Z,32.35
2018-08-29T08:33:13.751Z,31.96
2018-08-29T08:34:13.764Z,30.89
2018-08-29T08:35:13.776Z,31.90
2018-08-29T08:36:13.784Z,33.05
2018-08-29T08:37:13.796Z,34.08
2018-08-29T08:38:13.808Z,35.38
2018-08-29T08:39:13.821Z,34.80
2018-08-29T08:40:13.839Z,34.22
2018-08-29T08:41:13.851Z,34.31
2018-08-29T08:42:13.860Z,34.53
2018-08-29T08:43:13.872Z,34.92
2018-08-29T08:44:13.890Z,34.33
2018-08-29T08:45:13.900Z,33.48
2018-08-29T08:46:13.913Z,34.99
2018-08-29T08:47:13.925Z,34.12
2018-08-29T08:48:14.054Z,36.30
2018-08-29T08:49:14.431Z,38.15
2018-08-29T08:50:13.964Z,37.77
2018-08-29T08:51:13.974Z,37.20
2018-08-29T08:52:13.990Z,35.63
2018-08-29T08:53:14.004Z,37.20
2018-08-29T08:54:14.018Z,36.05
2018-08-29T08:55:14.030Z,36.02
2018-08-29T08:56:14.040Z,36.53
2018-08-29T08:57:14.054Z,37.91
2018-08-29T08:58:14.073Z,36.45
2018-08-29T08:59:14.144Z,36.69
2018-08-29T09:00:14.097Z,37.57
2018-08-29T09:01:14.110Z,39.05
2018-08-29T09:02:14.125Z,35.66
2018-08-29T09:03:14.144Z,33.15
2018-08-29T09:04:14.158Z,33.53
2018-08-29T09:05:14.171Z,34.69
2018-08-29T09:06:14.244Z,33.15
2018-08-29T09:07:14.202Z,33.31
2018-08-29T09:08:14.212Z,35.63
2018-08-29T09:09:14.225Z,34.61
2018-08-29T09:10:14.241Z,34.71
2018-08-29T09:11:14.256Z,32.59
2018-08-29T09:12:14.277Z,31.94
2018-08-29T09:13:14.290Z,31.56
2018-08-29T09:14:14.329Z,32.68
2018-08-29T09:15:14.316Z,31.76
2018-08-29T09:16:14.336Z,32.06
2018-08-29T09:17:14.351Z,31.65
2018-08-29T09:18:14.365Z,31.86
2018-08-29T09:19:14.380Z,32.07
2018-08-29T09:20:14.390Z,33.03
2018-08-29T09:21:14.404Z,31.99
2018-08-29T09:22:14.420Z,31.68
2018-08-29T09:23:14.436Z,32.80
2018-08-29T09:24:14.519Z,34.53
2018-08-29T09:25:14.469Z,33.72
2018-08-29T09:26:14.485Z,32.06
2018-08-29T09:27:14.498Z,31.88
2018-08-29T09:28:14.510Z,32.29
2018-08-29T09:29:14.535Z,32.34
2018-08-29T09:30:14.542Z,33.16
2018-08-29T09:31:14.559Z,32.07
2018-08-29T09:32:14.570Z,31.57
2018-08-29T09:33:14.585Z,31.86
2018-08-29T09:34:14.600Z,31.07
2018-08-29T09:35:14.639Z,31.10
2018-08-29T09:36:14.637Z,32.97
2018-08-29T09:37:14.648Z,35.02
2018-08-29T09:38:14.749Z,34.43
2018-08-29T09:39:14.679Z,35.61
2018-08-29T09:40:14.690Z,36.26
2018-08-29T09:41:14.705Z,37.54
2018-08-29T09:42:14.719Z,36.69
2018-08-29T09:43:14.735Z,36.23
2018-08-29T09:44:14.755Z,34.94
2018-08-29T09:45:14.769Z,34.28
2018-08-29T09:46:14.783Z,33.70
2018-08-29T09:47:14.797Z,33.62
2018-08-29T09:48:14.868Z,33.79
2018-08-29T09:49:14.830Z,34.59
2018-08-29T09:50:14.876Z,34.34
2018-08-29T09:51:14.929Z,32.92
2018-08-29T09:52:14.872Z,31.74
2018-08-29T09:53:14.913Z,30.47
2018-08-29T09:54:14.902Z,29.66
2018-08-29T09:55:14.987Z,32.20
2018-08-29T09:56:14.940Z,32.85
2018-08-29T09:57:14.955Z,33.20
2018-08-29T09:58:14.969Z,34.03
2018-08-29T09:59:14.985Z,34.34
2018-08-29T10:00:14.997Z,33.91
2018-08-29T10:01:15.013Z,33.70
2018-08-29T10:02:15.034Z,32.67
2018-08-29T10:03:15.049Z,32.57
2018-08-29T10:04:15.081Z,31.78
2018-08-29T10:05:15.076Z,31.10
2018-08-29T10:06:15.093Z,30.52
2018-08-29T10:07:15.107Z,30.73
2018-08-29T10:08:15.129Z,31.44
2018-08-29T10:09:15.147Z,31.78
2018-08-29T10:10:15.208Z,31.81
2018-08-29T10:11:15.176Z,31.30
2018-08-29T10:12:15.186Z,32.23
2018-08-29T10:13:15.202Z,33.18
2018-08-29T10:14:15.220Z,33.53
2018-08-29T10:15:15.233Z,33.34
2018-08-29T10:16:15.253Z,33.69
2018-08-29T10:17:15.268Z,34.80
2018-08-29T10:18:15.279Z,36.08
2018-08-29T10:19:15.297Z,36.20
2018-08-29T10:20:15.316Z,36.26
2018-08-29T10:21:15.331Z,36.16
2018-08-29T10:22:15.348Z,37.52
2018-08-29T10:23:15.392Z,37.42
2018-08-29T10:24:15.372Z,37.24
2018-08-29T10:25:15.386Z,37.68
2018-08-29T10:26:15.402Z,38.27
2018-08-29T10:27:15.416Z,37.48
2018-08-29T10:28:15.436Z,38.04
2018-08-29T10:29:15.452Z,39.07
2018-08-29T10:30:15.465Z,40.03
2018-08-29T10:31:15.478Z,41.05
2018-08-29T10:32:15.485Z,40.19
2018-08-29T10:33:15.498Z,39.64
2018-08-29T10:34:15.518Z,39.40
2018-08-29T10:35:15.530Z,37.70
2018-08-29T10:36:15.554Z,38.33
2018-08-29T10:37:15.551Z,39.06
2018-08-29T10:38:15.565Z,38.92
2018-08-29T10:39:15.576Z,39.43
2018-08-29T10:40:15.643Z,40.14
2018-08-29T10:41:15.606Z,40.33
2018-08-29T10:42:15.617Z,40.64
2018-08-29T10:43:15.629Z,40.70
2018-08-29T10:44:15.639Z,42.32
2018-08-29T10:45:15.650Z,43.42
2018-08-29T10:46:15.664Z,43.63
2018-08-29T10:47:15.675Z,42.29
2018-08-29T10:48:15.692Z,42.78
2018-08-29T10:49:15.716Z,42.11
2018-08-29T10:50:15.709Z,41.94
2018-08-29T10:51:15.724Z,40.56
2018-08-29T10:52:15.739Z,40.27
2018-08-29T10:53:15.755Z,40.29
2018-08-29T10:54:15.759Z,39.03
2018-08-29T10:55:15.868Z,38.74
2018-08-29T10:56:15.780Z,39.03
2018-08-29T10:57:15.808Z,40.25
2018-08-29T10:58:15.803Z,40.37
2018-08-29T10:59:15.813Z,41.21
2018-08-29T11:00:15.832Z,41.66
2018-08-29T11:01:15.842Z,41.45
2018-08-29T11:02:15.853Z,40.13
2018-08-29T11:03:15.865Z,39.54
2018-08-29T11:04:15.874Z,39.43
2018-08-29T11:05:15.886Z,40.21
2018-08-29T11:06:15.902Z,38.66
2018-08-29T11:07:15.914Z,38.84
2018-08-29T11:08:15.926Z,39.01
2018-08-29T11:09:15.932Z,40.17
2018-08-29T11:10:15.946Z,39.47
2018-08-29T11:11:15.956Z,38.82
2018-08-29T11:12:15.973Z,38.15
2018-08-29T11:13:15.984Z,37.63
2018-08-29T11:14:16.000Z,38.01
2018-08-29T11:15:16.009Z,37.76
2018-08-29T11:16:16.081Z,37.32
2018-08-29T11:17:16.029Z,37.58
2018-08-29T11:18:16.042Z,37.50
2018-08-29T11:19:16.056Z,37.44
2018-08-29T11:20:16.073Z,36.87
2018-08-29T11:21:16.087Z,36.22
2018-08-29T11:22:16.117Z,35.54
2018-08-29T11:23:16.152Z,35.03
2018-08-29T11:24:16.124Z,35.31
2018-08-29T11:25:16.137Z,35.21
2018-08-29T11:26:16.148Z,35.69
2018-08-29T11:27:16.159Z,36.01
2018-08-29T11:28:16.306Z,37.90
2018-08-29T11:29:16.180Z,40.03
2018-08-29T11:30:16.193Z,40.92
2018-08-29T11:31:16.205Z,41.23
2018-08-29T11:32:16.221Z,40.45
2018-08-29T11:33:16.232Z,40.25
2018-08-29T11:34:16.241Z,40.03
2018-08-29T11:35:16.254Z,40.11
2018-08-29T11:36:16.261Z,41.54
2018-08-29T11:37:16.273Z,41.74
2018-08-29T11:38:16.284Z,41.76
2018-08-29T11:39:16.295Z,42.03
2018-08-29T11:40:16.300Z,42.13
2018-08-29T11:41:16.311Z,43.16
2018-08-29T11:42:16.396Z,43.61
2018-08-29T11:43:16.411Z,43.41
2018-08-29T11:44:16.345Z,45.36
2018-08-29T11:45:16.355Z,45.34
2018-08-29T11:46:16.360Z,45.36
2018-08-29T11:47:16.373Z,45.95
2018-08-29T11:48:16.373Z,45.64
2018-08-29T11:49:16.382Z,45.92
2018-08-29T11:50:16.390Z,46.12
2018-08-29T11:51:16.398Z,46.41
2018-08-29T11:52:16.411Z,46.41
2018-08-29T11:53:16.418Z,46.63
2018-08-29T11:54:16.420Z,46.31
2018-08-29T11:55:16.429Z,46.80
2018-08-29T11:56:16.443Z,47.49
2018-08-29T11:57:16.447Z,46.34
2018-08-29T11:58:16.454Z,45.95
2018-08-29T11:59:16.462Z,45.26
2018-08-29T12:00:16.464Z,45.36
2018-08-29T12:01:16.471Z,45.75
2018-08-29T12:02:16.478Z,45.29
2018-08-29T12:03:16.487Z,44.80
2018-08-29T12:04:16.497Z,45.29
2018-08-29T12:05:16.503Z,45.26
2018-08-29T12:06:16.508Z,45.07
2018-08-29T12:07:16.514Z,45.17
2018-08-29T12:08:16.517Z,46.73
2018-08-29T12:09:16.549Z,46.63
2018-08-29T12:10:16.534Z,46.14
2018-08-29T12:11:16.541Z,45.26
2018-08-29T12:12:16.542Z,45.65
2018-08-29T12:13:16.548Z,46.66
2018-08-29T12:14:16.556Z,46.73
2018-08-29T12:15:16.562Z,46.04
2018-08-29T12:16:16.573Z,45.26
2018-08-29T12:17:16.579Z,45.36
2018-08-29T12:18:16.585Z,46.24
2018-08-29T12:19:16.608Z,46.44
2018-08-29T12:20:16.683Z,46.53
2018-08-29T12:21:16.675Z,46.53
2018-08-29T12:22:16.608Z,46.46
2018-08-29T12:23:16.615Z,46.44
2018-08-29T12:24:16.620Z,46.97
2018-08-29T12:25:16.625Z,48.41
2018-08-29T12:26:16.716Z,49.07
2018-08-29T12:27:16.636Z,49.83
2018-08-29T12:28:16.645Z,50.53
2018-08-29T12:29:16.655Z,50.82
2018-08-29T12:30:16.656Z,51.97
2018-08-29T12:31:16.661Z,51.58
2018-08-29T12:32:16.663Z,51.87
2018-08-29T12:33:16.667Z,52.84
2018-08-29T12:34:16.674Z,52.14
2018-08-29T12:35:16.679Z,53.30
2018-08-29T12:36:16.693Z,54.01
2018-08-29T12:37:16.750Z,53.75
2018-08-29T12:38:16.703Z,52.28
2018-08-29T12:39:16.706Z,51.73
2018-08-29T12:40:16.707Z,51.73
2018-08-29T12:41:16.711Z,51.75
2018-08-29T12:42:16.722Z,50.87
2018-08-29T12:43:16.731Z,50.58
2018-08-29T12:44:16.728Z,49.22
2018-08-29T12:45:16.732Z,49.12
2018-08-29T12:46:16.738Z,49.12
2018-08-29T12:47:16.743Z,49.02
2018-08-29T12:48:16.754Z,49.19
2018-08-29T12:49:16.758Z,49.10
2018-08-29T12:50:16.880Z,49.46
2018-08-29T12:51:16.772Z,49.46
2018-08-29T12:52:16.769Z,50.36